DW1234 Weather Reports


time (UTC)temp
C
wind
direction
speed
KPH
gust
KPH
rain 1hr
cm
rain 24hr
cm
rain mn
cm
humidity
%
barometer
mb
20220811225312 35 199 8.0 17.7 0.00 0.00 0.00 45 1022.0
20220811224753 35 175 8.0 17.7 0.00 0.00 0.00 45 1022.0
20220811224549 35 132 8.0 0.0 0.00 0.00 0.00 46 1019.6
20220811224233 35 207 8.0 16.1 0.00 0.00 0.00 46 1021.9
20220811223737 35 161 9.7 17.7 0.00 0.00 0.00 45 1022.0
20220811223218 35 196 8.0 22.5 0.00 0.00 0.00 46 1022.0
20220811223102 34 173 11.3 0.0 0.00 0.00 0.00 45 1019.8
20220811222742 35 161 14.5 22.5 0.00 0.00 0.00 46 1022.1
20220811222239 35 138 8.0 19.3 0.00 0.00 0.00 46 1022.1
20220811221802 35 186 14.5 19.3 0.00 0.00 0.00 46 1022.2
20220811221555 34 200 11.3 0.0 0.00 0.00 0.00 46 1019.8
20220811221243 35 173 6.4 24.1 0.00 0.00 0.00 45 1022.2
20220811220806 35 202 12.9 24.1 0.00 0.00 0.00 46 1022.2
20220811220249 35 136 9.7 20.9 0.00 0.00 0.00 46 1022.2
20220811220023 34 209 8.0 0.0 0.00 0.00 0.00 46 1019.9
20220811215805 35 136 8.0 20.9 0.00 0.00 0.00 45 1022.2
20220811215306 35 150 6.4 19.3 0.00 0.00 0.00 45 1022.3
20220811214723 35 146 8.0 19.3 0.00 0.00 0.00 46 1022.4
20220811214516 34 241 9.7 0.0 0.00 0.00 0.00 47 1020.1
20220811214309 35 182 9.7 14.5 0.00 0.00 0.00 46 1022.5
20220811213811 35 185 9.7 17.7 0.00 0.00 0.00 46 1022.5
20220811213314 35 158 9.7 17.7 0.00 0.00 0.00 45 1022.6
20220811213048 34 148 9.7 0.0 0.00 0.00 0.00 45 1020.3
20220811212818 35 189 9.7 17.7 0.00 0.00 0.00 47 1022.6
20220811212736 35 189 9.7 17.7 0.00 0.00 0.00 47 1022.6
20220811212235 34 142 11.3 17.7 0.00 0.00 0.00 46 1022.7
20220811211737 34 152 11.3 17.7 0.00 0.00 0.00 45 1022.7
20220811211505 34 213 9.7 0.0 0.00 0.00 0.00 47 1020.4
20220811211240 34 218 6.4 20.9 0.00 0.00 0.00 47 1022.7
20220811210744 34 142 9.7 20.9 0.00 0.00 0.00 45 1022.9
20220811210222 35 256 9.7 19.3 0.00 0.00 0.00 44 1022.8
20220811210013 34 148 8.0 0.0 0.00 0.00 0.00 44 1020.6
20220811205804 35 251 11.3 19.3 0.00 0.00 0.00 44 1022.8
20220811205721 35 251 11.3 19.3 0.00 0.00 0.00 44 1022.8
20220811205245 35 150 6.4 19.3 0.00 0.00 0.00 45 1022.9
20220811204749 35 218 4.8 19.3 0.00 0.00 0.00 46 1022.9
20220811204538 34 209 9.7 0.0 0.00 0.00 0.00 46 1020.8
20220811204225 35 139 11.3 16.1 0.00 0.00 0.00 45 1022.9
20220811203724 35 186 8.0 22.5 0.00 0.00 0.00 45 1023.0
20220811203249 35 188 14.5 24.1 0.00 0.00 0.00 45 1023.1
20220811203043 34 206 8.0 0.0 0.00 0.00 0.00 44 1020.9
20220811202727 35 192 12.9 24.1 0.00 0.00 0.00 45 1023.2
20220811202307 35 134 6.4 17.7 0.00 0.00 0.00 44 1023.1
20220811201750 34 220 11.3 17.7 0.00 0.00 0.00 45 1023.2
20220811201523 34 214 8.0 0.0 0.00 0.00 0.00 44 1020.9
20220811201227 34 200 9.7 17.7 0.00 0.00 0.00 46 1023.1
20220811200727 34 244 8.0 16.1 0.00 0.00 0.00 45 1023.2
20220811200315 34 211 11.3 16.1 0.00 0.00 0.00 44 1023.5
20220811200023 34 227 8.0 0.0 0.00 0.00 0.00 44 1021.3
20220811195728 34 138 9.7 17.7 0.00 0.00 0.00 45 1023.5
20220811195226 34 168 4.8 17.7 0.00 0.00 0.00 45 1023.5
20220811194725 34 221 9.7 16.1 0.00 0.00 0.00 46 1023.6
20220811194507 33 234 8.0 0.0 0.00 0.00 0.00 45 1021.3
20220811194220 34 155 9.7 16.1 0.00 0.00 0.00 46 1023.7
20220811193744 34 137 8.0 16.1 0.00 0.00 0.00 46 1023.7
20220811193245 34 213 12.9 17.7 0.00 0.00 0.00 46 1023.7
20220811193104 33 208 9.7 0.0 0.00 0.00 0.00 44 1021.5
20220811192810 33 201 11.3 20.9 0.00 0.00 0.00 46 1023.8
20220811192225 33 227 12.9 20.9 0.00 0.00 0.00 47 1023.8
20220811191727 33 185 3.2 12.9 0.00 0.00 0.00 46 1023.8
20220811191635 33 151 8.0 0.0 0.00 0.00 0.00 48 1021.6
20220811191232 33 142 6.4 19.3 0.00 0.00 0.00 47 1023.9
20220811190752 33 229 9.7 19.3 0.00 0.00 0.00 46 1024.0
20220811190229 33 194 8.0 17.7 0.00 0.00 0.00 46 1024.0
20220811190051 33 227 9.7 0.0 0.00 0.00 0.00 48 1021.8
20220811185754 33 190 9.7 17.7 0.00 0.00 0.00 46 1024.1
20220811185321 33 230 6.4 17.7 0.00 0.00 0.00 49 1024.0
20220811184736 33 256 12.9 17.7 0.00 0.00 0.00 48 1024.0
20220811184529 32 241 8.0 0.0 0.00 0.00 0.00 49 1021.8
20220811184236 33 225 8.0 17.7 0.00 0.00 0.00 49 1024.0
20220811183745 32 209 8.0 17.7 0.00 0.00 0.00 49 1024.1
20220811183244 32 219 9.7 17.7 0.00 0.00 0.00 49 1024.1
20220811183051 32 219 8.0 0.0 0.00 0.00 0.00 50 1021.8
20220811182806 32 196 11.3 19.3 0.00 0.00 0.00 49 1024.1
20220811182223 32 165 3.2 19.3 0.00 0.00 0.00 48 1024.3
20220811181721 32 188 8.0 19.3 0.00 0.00 0.00 50 1024.3
20220811181547 32 177 6.4 0.0 0.00 0.00 0.00 49 1022.0
20220811181223 32 171 4.8 16.1 0.00 0.00 0.00 49 1024.3
20220811180724 32 196 1.6 19.3 0.00 0.00 0.00 50 1024.4
20220811180309 32 192 12.9 19.3 0.00 0.00 0.00 52 1024.5
20220811180022 32 171 9.7 0.0 0.00 0.00 0.00 51 1022.2
20220811175750 32 198 9.7 19.3 0.00 0.00 0.00 51 1024.6
20220811175252 32 186 12.9 19.3 0.00 0.00 0.00 51 1024.6
20220811174729 32 209 8.0 16.1 0.00 0.00 0.00 52 1024.7
20220811174524 31 232 6.4 0.0 0.00 0.00 0.00 51 1022.5
20220811174253 31 194 8.0 16.1 0.00 0.00 0.00 52 1024.8
20220811173756 31 162 3.2 14.5 0.00 0.00 0.00 51 1024.7
20220811173238 31 157 6.4 16.1 0.00 0.00 0.00 53 1024.9
20220811173043 31 145 8.0 0.0 0.00 0.00 0.00 52 1022.7
20220811172734 31 199 3.2 20.9 0.00 0.00 0.00 53 1024.9
20220811172238 31 157 9.7 20.9 0.00 0.00 0.00 52 1025.0
20220811171737 31 128 3.2 12.9 0.00 0.00 0.00 55 1024.9
20220811171607 31 146 6.4 0.0 0.00 0.00 0.00 54 1022.7
20220811171505 31 165 8.0 0.0 0.00 0.00 0.00 55 1022.7
20220811171242 31 207 3.2 17.7 0.00 0.00 0.00 55 1025.0
20220811170806 30 221 9.7 17.7 0.00 0.00 0.00 55 1025.1
20220811170222 30 165 8.0 17.7 0.00 0.00 0.00 55 1025.1
20220811170047 30 148 6.4 0.0 0.00 0.00 0.00 56 1022.8
20220811165719 30 117 8.0 17.7 0.00 0.00 0.00 56 1025.1
20220811165221 30 133 3.2 16.1 0.00 0.00 0.00 58 1025.1
20220811164741 30 157 4.8 14.5 0.00 0.00 0.00 58 1025.1
20220811164518 29 176 4.8 0.0 0.00 0.00 0.00 59 1022.9
20220811164218 29 232 4.8 14.5 0.00 0.00 0.00 58 1025.1
20220811163746 29 144 1.6 11.3 0.00 0.00 0.00 60 1025.2
20220811163227 28 213 1.6 14.5 0.00 0.00 0.00 60 1025.3
20220811163053 28 171 4.8 0.0 0.00 0.00 0.00 61 1023.0
20220811162724 28 204 6.4 14.5 0.00 0.00 0.00 62 1025.3
20220811162310 28 186 4.8 14.5 0.00 0.00 0.00 62 1025.4
20220811161756 27 167 6.4 12.9 0.00 0.00 0.00 63 1025.5
20220811161536 27 196 8.0 0.0 0.00 0.00 0.00 64 1023.2
20220811161259 27 225 6.4 17.7 0.00 0.00 0.00 64 1025.6
20220811160737 27 207 14.5 17.7 0.00 0.00 0.00 68 1025.5
20220811160238 26 227 4.8 9.7 0.00 0.00 0.00 68 1025.6
20220811160007 26 234 4.8 0.0 0.00 0.00 0.00 69 1023.4
20220811155802 26 175 4.8 9.7 0.00 0.00 0.00 71 1025.6
20220811155304 25 231 4.8 9.7 0.00 0.00 0.00 72 1025.7
20220811154720 25 230 3.2 11.3 0.00 0.00 0.00 73 1025.7
20220811154540 24 238 6.4 0.0 0.00 0.00 0.00 74 1023.4
20220811154221 24 240 6.4 11.3 0.00 0.00 0.00 76 1025.8
20220811153720 23 227 4.8 12.9 0.00 0.00 0.00 78 1025.8
20220811153322 23 188 6.4 12.9 0.00 0.00 0.00 80 1025.8
20220811153040 22 173 6.4 0.0 0.00 0.00 0.00 81 1023.6
20220811152738 22 194 8.0 11.3 0.00 0.00 0.00 82 1025.8
20220811152242 22 208 6.4 11.3 0.00 0.00 0.00 84 1025.8
20220811151808 22 229 8.0 11.3 0.00 0.00 0.00 85 1025.8
20220811151649 21 229 6.4 0.0 0.00 0.00 0.00 85 1023.6
20220811151301 21 217 9.7 11.3 0.00 0.00 0.00 86 1025.8
20220811150738 21 215 8.0 11.3 0.00 0.00 0.00 87 1025.8
20220811150248 21 200 4.8 11.3 0.00 0.00 0.00 88 1025.8
20220811150007 21 171 6.4 0.0 0.00 0.00 0.00 88 1023.5
20220811145723 21 209 8.0 11.3 0.00 0.00 0.00 88 1025.7
20220811145222 21 258 4.8 8.0 0.00 0.00 0.00 89 1025.7
20220811144724 21 252 4.8 8.0 0.00 0.00 0.00 89 1025.7
20220811144639 20 239 4.8 0.0 0.00 0.00 0.00 89 1023.5
20220811144222 21 196 4.8 11.3 0.00 0.00 0.00 88 1025.8
20220811143723 21 219 4.8 11.3 0.00 0.00 0.00 88 1025.7
20220811143223 21 230 6.4 9.7 0.00 0.00 0.00 88 1025.7
20220811143110 20 183 4.8 0.0 0.00 0.00 0.00 88 1023.4
20220811142808 21 214 3.2 9.7 0.00 0.00 0.00 88 1025.7
20220811142225 21 218 6.4 9.7 0.00 0.00 0.00 88 1025.8
20220811141722 21 232 4.8 8.0 0.00 0.00 0.00 88 1025.8
20220811141551 20 200 4.8 0.0 0.00 0.00 0.00 88 1023.5
20220811141224 21 200 6.4 9.7 0.00 0.00 0.00 88 1025.8
20220811140723 21 223 4.8 9.7 0.00 0.00 0.00 88 1025.8
20220811140248 21 203 4.8 8.0 0.00 0.00 0.00 88 1025.8
20220811140049 21 202 3.2 0.0 0.00 0.00 0.00 88 1023.6
20220811135811 21 187 3.2 6.4 0.00 0.00 0.00 89 1025.8
20220811135226 21 155 3.2 8.0 0.00 0.00 0.00 89 1025.7
20220811134725 20 162 4.8 8.0 0.00 0.00 0.00 89 1025.7
20220811134552 20 168 3.2 0.0 0.00 0.00 0.00 89 1023.5
20220811134250 20 200 4.8 8.0 0.00 0.00 0.00 89 1025.8
20220811133723 20 160 3.2 6.4 0.00 0.00 0.00 89 1025.7
20220811133312 20 160 1.6 6.4 0.00 0.00 0.00 90 1025.7
20220811133045 20 160 1.6 0.0 0.00 0.00 0.00 90 1023.5
20220811132756 20 159 1.6 6.4 0.00 0.00 0.00 90 1025.7
20220811132322 20 159 0.0 6.4 0.00 0.00 0.00 90 1025.7
20220811131735 20 159 1.6 8.0 0.00 0.00 0.00 90 1025.7
20220811131522 20 159 3.2 0.0 0.00 0.00 0.00 90 1023.4
20220811131238 20 159 1.6 8.0 0.00 0.00 0.00 90 1025.7
20220811130800 20 165 4.8 8.0 0.00 0.00 0.00 90 1025.7
20220811130717 20 165 4.8 8.0 0.00 0.00 0.00 90 1025.7
20220811130220 19 166 1.6 6.4 0.00 0.00 0.00 90 1025.7
20220811130009 19 166 1.6 0.0 0.00 0.00 0.00 90 1023.4
20220811125745 19 165 1.6 6.4 0.00 0.00 0.00 90 1025.7
20220811125222 19 165 3.2 6.4 0.00 0.00 0.00 90 1025.7
20220811124808 19 165 3.2 6.4 0.00 0.00 0.00 90 1025.6
20220811124550 18 165 1.6 0.0 0.00 0.00 0.00 90 1023.3
20220811124252 19 165 1.6 6.4 0.00 0.00 0.00 90 1025.5
20220811123817 18 165 0.0 8.0 0.00 0.00 0.00 90 1025.5
20220811123316 18 165 1.6 8.0 0.00 0.00 0.00 90 1025.4
20220811123045 18 165 1.6 0.0 0.00 0.00 0.00 90 1023.1
20220811122734 18 165 3.2 6.4 0.00 0.00 0.00 90 1025.4
20220811122231 18 165 1.6 6.4 0.00 0.00 0.00 89 1025.3
20220811121734 18 165 1.6 6.4 0.00 0.00 0.00 89 1025.2
20220811121533 18 165 1.6 0.0 0.00 0.00 0.00 89 1023.0
20220811121316 18 165 3.2 6.4 0.00 0.00 0.00 89 1025.3
20220811120801 18 165 0.0 6.4 0.00 0.00 0.00 89 1025.3
20220811120303 18 165 3.2 6.4 0.00 0.00 0.00 89 1025.2
20220811120013 18 165 1.6 0.0 0.00 0.00 0.00 89 1022.9
20220811115745 18 165 1.6 3.2 0.00 0.00 0.00 89 1025.2
20220811115241 18 165 1.6 3.2 0.00 0.00 0.00 89 1025.2
20220811114741 18 165 0.0 3.2 0.00 0.00 0.00 89 1025.1
20220811114526 18 165 1.6 0.0 0.00 0.00 0.00 89 1022.9
20220811114218 18 165 0.0 3.2 0.00 0.00 0.00 89 1025.2
20220811113803 18 165 1.6 3.2 0.00 0.00 0.00 88 1025.1
20220811113241 18 165 0.0 6.4 0.00 0.00 0.00 88 1025.1
20220811113053 18 165 1.6 0.0 0.00 0.00 0.00 88 1022.8
20220811112717 18 165 3.2 6.4 0.00 0.00 0.00 88 1025.1
20220811112242 18 165 1.6 3.2 0.00 0.00 0.00 88 1025.1
20220811111720 19 165 0.0 3.2 0.00 0.00 0.00 88 1025.1
20220811111557 18 165 0.0 0.0 0.00 0.00 0.00 88 1022.7
20220811111242 19 165 0.0 3.2 0.00 0.00 0.00 88 1025.0
20220811110739 19 165 0.0 0.0 0.00 0.00 0.00 87 1024.9
20220811110242 19 165 0.0 0.0 0.00 0.00 0.00 87 1024.9
20220811110013 18 165 0.0 0.0 0.00 0.00 0.00 87 1022.7
20220811105743 19 165 0.0 0.0 0.00 0.00 0.00 87 1024.9
20220811105218 19 165 0.0 0.0 0.00 0.00 0.00 87 1024.9
20220811104743 19 165 0.0 1.6 0.00 0.00 0.00 87 1024.9
20220811104533 19 165 0.0 0.0 0.00 0.00 0.00 87 1022.6
20220811104241 19 165 0.0 1.6 0.00 0.00 0.00 87 1024.8
20220811103741 20 165 0.0 1.6 0.00 0.00 0.00 86 1024.8
20220811103219 20 165 0.0 1.6 0.00 0.00 0.00 86 1024.8
20220811103056 19 165 0.0 0.0 0.00 0.00 0.00 86 1022.6
20220811102737 20 165 0.0 1.6 0.00 0.00 0.00 86 1024.8
20220811102331 20 165 0.0 1.6 0.00 0.00 0.00 85 1024.8
20220811101836 20 165 0.0 3.2 0.00 0.00 0.00 85 1024.9
20220811101509 20 165 0.0 0.0 0.00 0.00 0.00 85 1022.6
20220811101253 20 165 1.6 3.2 0.00 0.00 0.00 85 1024.9
20220811100730 20 165 0.0 3.2 0.00 0.00 0.00 85 1024.8
20220811100311 20 165 1.6 3.2 0.00 0.00 0.00 85 1024.8
20220811100122 20 165 1.6 0.0 0.00 0.00 0.00 85 1022.6
20220811095755 20 165 0.0 6.4 0.00 0.00 0.00 85 1024.8
20220811095319 20 165 3.2 6.4 0.00 0.00 0.00 85 1024.7
20220811094736 20 165 3.2 6.4 0.00 0.00 0.00 85 1024.7
20220811094536 20 165 1.6 0.0 0.00 0.00 0.00 85 1022.4
20220811094320 20 165 1.6 6.4 0.00 0.00 0.00 85 1024.7
20220811094237 20 165 1.6 6.4 0.00 0.00 0.00 85 1024.7
20220811093735 20 165 1.6 6.4 0.00 0.00 0.00 85 1024.7
20220811093233 20 165 1.6 6.4 0.00 0.00 0.00 85 1024.8
20220811093031 20 165 1.6 0.0 0.00 0.00 0.00 85 1022.5
20220811092813 20 165 1.6 6.4 0.00 0.00 0.00 84 1024.7
20220811092258 20 165 3.2 6.4 0.00 0.00 0.00 84 1024.8
20220811091717 21 165 3.2 6.4 0.00 0.00 0.00 84 1024.8
20220811091551 20 165 1.6 0.0 0.00 0.00 0.00 84 1022.5
20220811091222 21 166 1.6 6.4 0.00 0.00 0.00 84 1024.8
20220811090722 21 165 1.6 9.7 0.00 0.00 0.00 84 1024.8
20220811090308 21 167 1.6 9.7 0.00 0.00 0.00 84 1024.7
20220811090035 20 167 3.2 0.0 0.00 0.00 0.00 84 1022.5
20220811085745 21 186 1.6 4.8 0.00 0.00 0.00 83 1024.8
20220811085244 21 210 1.6 4.8 0.00 0.00 0.00 83 1024.8
20220811084722 21 210 1.6 4.8 0.00 0.00 0.00 83 1024.8
20220811084540 20 210 1.6 0.0 0.00 0.00 0.00 83 1022.5
20220811084244 21 211 1.6 4.8 0.00 0.00 0.00 83 1024.9
20220811083750 21 211 1.6 4.8 0.00 0.00 0.00 83 1024.9
20220811083253 21 211 3.2 4.8 0.00 0.00 0.00 82 1024.9
20220811083036 20 211 1.6 0.0 0.00 0.00 0.00 82 1022.6
20220811082758 21 212 1.6 3.2 0.00 0.00 0.00 82 1024.8
20220811082316 21 212 1.6 4.8 0.00 0.00 0.00 82 1024.9
20220811082234 21 212 1.6 4.8 0.00 0.00 0.00 82 1024.9
20220811081757 21 212 1.6 4.8 0.00 0.00 0.00 82 1024.9
20220811081528 20 212 1.6 0.0 0.00 0.00 0.00 82 1022.6
20220811081234 21 213 1.6 3.2 0.00 0.00 0.00 82 1024.9
20220811080733 21 213 1.6 3.2 0.00 0.00 0.00 82 1024.9
20220811080235 21 213 1.6 3.2 0.00 0.00 0.00 82 1024.9
20220811080027 20 213 1.6 0.0 0.00 0.00 0.00 82 1022.6
20220811075817 21 213 1.6 6.4 0.00 0.00 0.00 82 1024.9
20220811075233 21 213 3.2 6.4 0.00 0.00 0.00 82 1024.9
20220811074732 21 221 1.6 4.8 0.00 0.00 0.00 82 1024.8
20220811074511 21 221 1.6 0.0 0.00 0.00 0.00 82 1022.6
20220811074252 21 221 3.2 4.8 0.00 0.00 0.00 82 1024.8
20220811073731 21 221 1.6 3.2 0.00 0.00 0.00 82 1024.9
20220811073314 21 221 1.6 3.2 0.00 0.00 0.00 82 1024.8
20220811073049 21 221 0.0 0.0 0.00 0.00 0.00 82 1022.5
20220811072815 21 221 0.0 1.6 0.00 0.00 0.00 81 1024.7
20220811072231 21 221 0.0 1.6 0.00 0.00 0.00 81 1024.8
20220811071758 21 221 0.0 3.2 0.00 0.00 0.00 81 1024.8
20220811071509 21 221 1.6 0.0 0.00 0.00 0.00 81 1022.5
20220811071257 21 221 1.6 3.2 0.00 0.00 0.00 81 1024.8
20220811070801 21 221 1.6 3.2 0.00 0.00 0.00 81 1024.8
20220811070308 21 221 0.0 4.8 0.00 0.00 0.00 81 1024.9
20220811070225 21 221 0.0 4.8 0.00 0.00 0.00 81 1024.9
20220811070039 21 221 1.6 0.0 0.00 0.00 0.00 81 1022.6
20220811065811 21 221 3.2 4.8 0.00 0.00 0.00 81 1024.9
20220811065253 22 221 1.6 3.2 0.00 0.00 0.00 80 1024.8
20220811064816 22 221 1.6 3.2 0.00 0.00 0.00 79 1024.9
20220811064537 22 221 3.2 0.0 0.00 0.00 0.00 79 1022.6
20220811064320 22 221 1.6 4.8 0.00 0.00 0.00 79 1024.8
20220811063737 22 221 3.2 4.8 0.00 0.00 0.00 79 1024.9
20220811063258 22 221 3.2 4.8 0.00 0.00 0.00 79 1025.0
20220811063016 22 221 3.2 0.0 0.00 0.00 0.00 78 1022.7
20220811062738 22 221 3.2 6.4 0.00 0.00 0.00 78 1025.0
20220811062236 22 218 1.6 6.4 0.00 0.00 0.00 78 1025.0
20220811061737 22 218 3.2 6.4 0.00 0.00 0.00 78 1024.9
20220811061542 22 217 1.6 0.0 0.00 0.00 0.00 78 1022.7
20220811061215 22 189 3.2 4.8 0.00 0.00 0.00 78 1024.9
20220811060817 22 189 1.6 1.6 0.00 0.00 0.00 77 1024.9
20220811060735 22 189 1.6 1.6 0.00 0.00 0.00 77 1024.9
20220811060236 23 189 0.0 3.2 0.00 0.00 0.00 76 1024.9
20220811060040 22 189 0.0 0.0 0.00 0.00 0.00 75 1022.6
20220811055735 23 189 0.0 3.2 0.00 0.00 0.00 75 1024.7
20220811055301 23 189 0.0 1.6 0.00 0.00 0.00 75 1024.8
20220811054741 23 189 0.0 1.6 0.00 0.00 0.00 75 1024.8
20220811054543 23 189 1.6 0.0 0.00 0.00 0.00 75 1022.6
20220811054304 23 189 0.0 3.2 0.00 0.00 0.00 75 1024.9
20220811053722 23 189 1.6 3.2 0.00 0.00 0.00 75 1024.9
20220811053302 23 189 1.6 4.8 0.00 0.00 0.00 75 1024.8
20220811053019 23 189 1.6 0.0 0.00 0.00 0.00 75 1022.5
20220811052739 23 189 3.2 4.8 0.00 0.00 0.00 75 1024.9
20220811052217 23 189 0.0 3.2 0.00 0.00 0.00 75 1024.9
20220811051721 23 189 1.6 3.2 0.00 0.00 0.00 75 1024.8
20220811051521 23 189 0.0 0.0 0.00 0.00 0.00 75 1022.6
20220811051324 23 189 1.6 3.2 0.00 0.00 0.00 75 1024.9
20220811050738 23 189 0.0 1.6 0.00 0.00 0.00 74 1024.9
20220811050243 23 189 0.0 3.2 0.00 0.00 0.00 73 1024.8
20220811050101 23 189 0.0 0.0 0.00 0.00 0.00 73 1022.6
20220811045815 24 189 1.6 3.2 0.00 0.00 0.00 73 1024.8
20220811045257 24 189 0.0 3.2 0.00 0.00 0.00 72 1024.9
20220811044738 24 189 1.6 4.8 0.00 0.00 0.00 72 1024.7
20220811044511 24 189 1.6 0.0 0.00 0.00 0.00 72 1022.6
20220811044217 25 189 1.6 4.8 0.00 0.00 0.00 72 1024.7
20220811043721 25 189 0.0 1.6 0.00 0.00 0.00 71 1024.7
20220811043219 25 189 0.0 1.6 0.00 0.00 0.00 70 1024.7
20220811043034 25 189 0.0 0.0 0.00 0.00 0.00 70 1022.5
20220811042807 25 189 0.0 1.6 0.00 0.00 0.00 70 1024.8
20220811042725 25 189 0.0 1.6 0.00 0.00 0.00 70 1024.8
20220811042219 25 189 0.0 3.2 0.00 0.00 0.00 69 1024.7
20220811041808 25 189 0.0 4.8 0.00 0.00 0.00 69 1024.7
20220811041726 25 189 0.0 4.8 0.00 0.00 0.00 69 1024.7
20220811041604 25 189 1.6 0.0 0.00 0.00 0.00 68 1022.4
20220811041225 26 189 1.6 4.8 0.00 0.00 0.00 68 1024.7
20220811040754 26 189 1.6 4.8 0.00 0.00 0.00 67 1024.7
20220811040257 26 189 1.6 6.4 0.00 0.00 0.00 67 1024.7
20220811040058 26 189 3.2 0.0 0.00 0.00 0.00 67 1022.5
20220811035822 26 189 3.2 6.4 0.00 0.00 0.00 67 1024.7
20220811035242 26 196 1.6 3.2 0.00 0.00 0.00 67 1024.8
20220811034736 26 197 1.6 6.4 0.00 0.00 0.00 66 1024.8
20220811034559 26 197 3.2 0.0 0.00 0.00 0.00 66 1022.5
20220811034303 26 197 3.2 8.0 0.00 0.00 0.00 66 1024.8
20220811033747 26 212 6.4 8.0 0.00 0.00 0.00 66 1024.8
20220811033252 27 169 3.2 6.4 0.00 0.00 0.00 66 1024.7
20220811033109 26 169 1.6 0.0 0.00 0.00 0.00 66 1022.4
20220811032814 27 169 0.0 8.0 0.00 0.00 0.00 66 1024.7
20220811032124 27 141 3.2 9.7 0.00 0.00 0.00 65 1024.6
20220811031313 27 134 4.8 9.7 0.00 0.00 0.00 65 1024.6
20220811030729 27 157 1.6 9.7 0.00 0.00 0.00 64 1024.5
20220811030222 27 141 4.8 11.3 0.00 0.00 0.00 64 1024.4
20220811030036 27 140 4.8 0.0 0.00 0.00 0.00 64 1022.2
20220811025721 27 146 6.4 11.3 0.00 0.00 0.00 64 1024.4
20220811025218 27 152 3.2 9.7 0.00 0.00 0.00 63 1024.4
20220811024747 27 151 4.8 9.7 0.00 0.00 0.00 63 1024.4
20220811024550 27 149 4.8 0.0 0.00 0.00 0.00 63 1022.1
20220811024225 27 175 6.4 9.7 0.00 0.00 0.00 63 1024.3
20220811023813 27 152 6.4 9.7 0.00 0.00 0.00 63 1024.3
20220811023238 28 161 3.2 9.7 0.00 0.00 0.00 62 1024.2
20220811023035 27 153 4.8 0.0 0.00 0.00 0.00 62 1021.9
20220811022737 28 144 3.2 8.0 0.00 0.00 0.00 61 1024.2
20220811022234 28 148 3.2 6.4 0.00 0.00 0.00 61 1024.2
20220811021721 28 147 1.6 8.0 0.00 0.00 0.00 60 1024.1
20220811021542 28 148 3.2 0.0 0.00 0.00 0.00 60 1021.8
20220811021219 28 135 3.2 8.0 0.00 0.00 0.00 60 1024.0
20220811020717 28 149 3.2 8.0 0.00 0.00 0.00 59 1024.0
20220811020218 28 120 1.6 11.3 0.00 0.00 0.00 59 1023.9
20220811020041 28 120 3.2 0.0 0.00 0.00 0.00 59 1021.6
20220811015742 28 153 4.8 11.3 0.00 0.00 0.00 59 1023.8
20220811015307 28 148 1.6 11.3 0.00 0.00 0.00 58 1023.8
20220811014745 28 136 1.6 9.7 0.00 0.00 0.00 57 1023.7
20220811014609 28 136 3.2 0.0 0.00 0.00 0.00 57 1021.4
20220811014501 28 136 3.2 0.0 0.00 0.00 0.00 57 1021.4
20220811014249 29 155 1.6 9.7 0.00 0.00 0.00 57 1023.6
20220811013736 29 148 3.2 9.7 0.00 0.00 0.00 56 1023.6
20220811013302 29 144 1.6 9.7 0.00 0.00 0.00 56 1023.6
20220811013220 29 144 1.6 9.7 0.00 0.00 0.00 56 1023.6
20220811013024 29 144 4.8 0.0 0.00 0.00 0.00 56 1021.3
20220811012745 29 113 6.4 11.3 0.00 0.00 0.00 55 1023.5
20220811012309 30 130 4.8 11.3 0.00 0.00 0.00 55 1023.5
20220811011748 30 143 4.8 12.9 0.00 0.00 0.00 54 1023.5
20220811011558 30 121 4.8 0.0 0.00 0.00 0.00 54 1021.2
20220811011225 30 144 8.0 12.9 0.00 0.00 0.00 54 1023.5
20220811010811 30 145 4.8 12.9 0.00 0.00 0.00 53 1023.5
20220811010729 30 145 4.8 12.9 0.00 0.00 0.00 53 1023.5
20220811010226 30 143 3.2 9.7 0.00 0.00 0.00 53 1023.4
20220811010052 30 143 3.2 0.0 0.00 0.00 0.00 53 1021.2
20220811005726 30 125 3.2 9.7 0.00 0.00 0.00 53 1023.4
20220811005313 31 155 3.2 11.3 0.00 0.00 0.00 52 1023.5
20220811004729 31 139 1.6 11.3 0.00 0.00 0.00 52 1023.5
20220811004544 31 139 6.4 0.0 0.00 0.00 0.00 52 1021.2
20220811004251 31 184 3.2 14.5 0.00 0.00 0.00 52 1023.4
20220811003729 31 142 8.0 14.5 0.00 0.00 0.00 51 1023.3
20220811003316 31 192 4.8 12.9 0.00 0.00 0.00 51 1023.3
20220811003029 31 156 4.8 0.0 0.00 0.00 0.00 51 1021.1
20220811002732 32 142 1.6 12.9 0.00 0.00 0.00 50 1023.3
20220811002230 32 194 3.2 12.9 0.00 0.00 0.00 50 1023.3
20220811001815 32 199 8.0 11.3 0.00 0.00 0.00 50 1023.3
20220811001536 32 200 4.8 0.0 0.00 0.00 0.00 49 1021.0
20220811001300 32 153 4.8 9.7 0.00 0.00 0.00 49 1023.2
20220811000818 33 148 6.4 11.3 0.00 0.00 0.00 49 1023.2
20220811000736 33 148 6.4 11.3 0.00 0.00 0.00 49 1023.2
20220811000302 33 213 8.0 14.5 0.00 0.00 0.00 47 1023.2
20220811000010 33 150 6.4 0.0 0.00 0.00 0.00 47 1021.0
20220810235717 33 142 8.0 14.5 0.00 0.00 0.00 47 1023.2
20220810235305 33 105 6.4 12.9 0.00 0.00 0.00 47 1023.2
20220810234740 34 163 4.8 11.3 0.00 0.00 0.00 46 1023.3
20220810234535 34 164 3.2 0.0 0.00 0.00 0.00 46 1021.1
20220810234239 34 161 3.2 14.5 0.00 0.00 0.00 46 1023.3
20220810233743 35 150 1.6 14.5 0.00 0.00 0.00 46 1023.3
20220810233222 35 149 3.2 11.3 0.00 0.00 0.00 45 1023.4
20220810233044 35 159 6.4 0.0 0.00 0.00 0.00 46 1021.1
20220810232720 35 193 8.0 11.3 0.00 0.00 0.00 46 1023.4
20220810232222 35 144 4.8 14.5 0.00 0.00 0.00 47 1023.4
20220810231749 35 135 6.4 14.5 0.00 0.00 0.00 46 1023.5
20220810231516 34 144 4.8 0.0 0.00 0.00 0.00 45 1021.2
20220810231230 35 120 4.8 9.7 0.00 0.00 0.00 46 1023.5
20220810230758 35 180 4.8 9.7 0.00 0.00 0.00 46 1023.6
20220810230220 34 148 1.6 9.7 0.00 0.00 0.00 46 1023.6
20220810230029 34 148 6.4 0.0 0.00 0.00 0.00 46 1021.4
20220810225806 34 130 3.2 17.7 0.00 0.00 0.00 46 1023.7